createdAt,value
2023-05-15T00:02:16.647Z,5.13
2023-05-15T00:04:45.792Z,4.45
2023-05-15T00:07:15.234Z,4.47
2023-05-15T00:09:43.960Z,5.00
2023-05-15T00:12:12.186Z,4.72
2023-05-15T00:14:40.796Z,5.30
2023-05-15T00:17:09.902Z,5.65
2023-05-15T00:19:38.454Z,5.40
2023-05-15T00:22:06.536Z,5.18
2023-05-15T00:24:35.498Z,5.50
2023-05-15T00:27:04.472Z,5.25
2023-05-15T00:29:32.856Z,5.85
2023-05-15T00:32:00.833Z,6.30
2023-05-15T00:34:29.657Z,6.95
2023-05-15T00:37:00.830Z,7.57
2023-05-15T00:39:29.911Z,7.07
2023-05-15T00:42:02.129Z,5.15
2023-05-15T00:44:35.060Z,5.45
2023-05-15T00:47:04.166Z,5.70
2023-05-15T00:49:35.675Z,4.70
2023-05-15T00:54:34.067Z,5.03
2023-05-15T00:57:04.168Z,4.97
2023-05-15T00:59:33.569Z,5.30
2023-05-15T01:02:01.807Z,5.68
2023-05-15T01:04:30.470Z,7.55
2023-05-15T01:06:58.492Z,5.20
2023-05-15T01:09:31.454Z,5.50
2023-05-15T01:12:00.892Z,6.35
2023-05-15T01:14:29.741Z,5.78
2023-05-15T01:16:58.338Z,6.72
2023-05-15T01:19:27.781Z,5.50
2023-05-15T01:22:35.364Z,4.55
2023-05-15T01:25:32.171Z,6.43
2023-05-15T01:28:13.120Z,4.35
2023-05-15T01:30:45.718Z,4.43
2023-05-15T01:33:29.164Z,5.00
2023-05-15T01:36:36.805Z,5.43
2023-05-15T01:39:10.171Z,3.80
2023-05-15T01:41:51.297Z,5.35
2023-05-15T01:44:29.601Z,4.30
2023-05-15T01:47:23.530Z,4.15
2023-05-15T01:49:54.866Z,4.53
2023-05-15T01:52:52.361Z,4.10
2023-05-15T01:55:24.232Z,4.45
2023-05-15T01:58:02.602Z,4.78
2023-05-15T02:00:32.869Z,5.25
2023-05-15T02:03:02.159Z,4.90
2023-05-15T02:05:31.347Z,7.63
2023-05-15T02:08:00.909Z,6.80
2023-05-15T02:10:29.901Z,6.20
2023-05-15T02:12:58.603Z,5.65
2023-05-15T02:15:29.060Z,5.43
2023-05-15T02:17:57.655Z,6.25
2023-05-15T02:20:25.830Z,4.78
2023-05-15T02:22:58.089Z,4.90
2023-05-15T02:25:45.490Z,5.30
2023-05-15T02:28:22.769Z,4.95
2023-05-15T02:30:58.287Z,6.50
2023-05-15T02:33:38.471Z,5.28
2023-05-15T02:36:09.556Z,5.38
2023-05-15T02:38:53.694Z,5.05
2023-05-15T02:41:23.218Z,5.07
2023-05-15T02:43:55.372Z,5.60
2023-05-15T02:46:27.839Z,5.28
2023-05-15T02:48:56.819Z,5.57
2023-05-15T02:51:24.855Z,5.10
2023-05-15T02:53:54.184Z,5.25
2023-05-15T02:56:22.444Z,6.05
2023-05-15T02:58:50.903Z,6.10
2023-05-15T03:01:21.394Z,5.95
2023-05-15T03:03:49.990Z,6.05
2023-05-15T03:06:18.890Z,4.70
2023-05-15T03:08:47.555Z,5.55
2023-05-15T03:11:15.523Z,7.05
2023-05-15T03:13:43.962Z,5.88
2023-05-15T03:16:12.032Z,7.05
2023-05-15T03:18:40.593Z,5.38
2023-05-15T03:21:08.732Z,5.32
2023-05-15T03:23:38.139Z,5.90
2023-05-15T03:26:06.490Z,6.80
2023-05-15T03:28:35.086Z,5.93
2023-05-15T03:31:05.087Z,6.68
2023-05-15T03:33:33.467Z,5.80
2023-05-15T03:36:01.448Z,7.03
2023-05-15T03:38:29.953Z,6.63
2023-05-15T03:40:57.884Z,6.05
2023-05-15T03:43:26.254Z,5.78
2023-05-15T03:45:54.349Z,6.07
2023-05-15T03:48:22.667Z,6.72
2023-05-15T03:50:52.414Z,7.13
2023-05-15T03:53:20.817Z,6.43
2023-05-15T03:55:49.031Z,7.15
2023-05-15T03:58:17.701Z,5.97
2023-05-15T04:00:45.980Z,7.88
2023-05-15T04:03:14.560Z,7.65
2023-05-15T04:05:43.151Z,8.15
2023-05-15T04:08:12.653Z,7.07
2023-05-15T04:10:40.826Z,8.35
2023-05-15T04:13:09.300Z,7.38
2023-05-15T04:15:37.534Z,8.27
2023-05-15T04:18:06.098Z,8.52
2023-05-15T04:20:34.261Z,7.93
2023-05-15T04:23:04.303Z,8.05
2023-05-15T04:25:32.964Z,8.57
2023-05-15T04:28:01.710Z,8.93
2023-05-15T04:30:31.583Z,7.88
2023-05-15T04:33:00.075Z,8.57
2023-05-15T04:35:28.588Z,8.45
2023-05-15T04:37:57.731Z,9.52
2023-05-15T04:40:25.924Z,8.55
2023-05-15T04:42:54.620Z,8.52
2023-05-15T04:45:24.851Z,8.85
2023-05-15T04:47:53.705Z,9.18
2023-05-15T04:50:21.780Z,9.32
2023-05-15T04:52:50.225Z,7.90
2023-05-15T04:55:18.311Z,8.20
2023-05-15T04:57:48.148Z,9.13
2023-05-15T05:00:16.408Z,8.82
2023-05-15T05:02:47.368Z,8.38
2023-05-15T05:05:16.683Z,8.10
2023-05-15T05:07:46.537Z,10.00
2023-05-15T05:10:14.465Z,8.43
2023-05-15T05:12:42.941Z,12.48
2023-05-15T05:15:11.236Z,9.25
2023-05-15T05:17:39.649Z,8.60
2023-05-15T05:20:12.836Z,8.00
2023-05-15T05:22:42.586Z,7.78
2023-05-15T05:25:11.195Z,11.20
2023-05-15T05:27:39.710Z,7.32
2023-05-15T05:30:08.874Z,7.35
2023-05-15T05:32:37.273Z,8.27
2023-05-15T05:35:05.943Z,8.13
2023-05-15T05:37:34.320Z,6.78
2023-05-15T05:40:02.370Z,8.90
2023-05-15T05:42:30.882Z,6.55
2023-05-15T05:44:58.828Z,8.75
2023-05-15T05:47:27.144Z,5.45
2023-05-15T05:49:55.352Z,6.95
2023-05-15T05:52:23.610Z,8.02
2023-05-15T05:54:51.636Z,6.95
2023-05-15T05:57:20.106Z,5.63
2023-05-15T05:59:49.808Z,7.60
2023-05-15T06:02:18.221Z,6.28
2023-05-15T06:04:46.400Z,8.63
2023-05-15T06:07:14.631Z,6.85
2023-05-15T06:09:42.464Z,8.75
2023-05-15T06:12:10.563Z,5.55
2023-05-15T06:14:38.656Z,6.28
2023-05-15T06:17:06.912Z,7.55
2023-05-15T06:19:34.716Z,5.72
2023-05-15T06:22:02.994Z,6.97
2023-05-15T06:24:30.757Z,6.30
2023-05-15T06:26:59.111Z,8.70
2023-05-15T06:29:27.151Z,6.53
2023-05-15T06:31:55.339Z,6.88
2023-05-15T06:34:23.421Z,9.07
2023-05-15T06:36:52.778Z,5.15
2023-05-15T06:39:22.736Z,5.93
2023-05-15T06:53:41.851Z,6.70
2023-05-15T06:56:12.570Z,7.72
2023-05-15T06:58:40.569Z,7.03
2023-05-15T07:01:11.849Z,6.30
2023-05-15T07:03:40.124Z,10.18
2023-05-15T07:06:08.398Z,6.72
2023-05-15T07:08:36.509Z,4.82
2023-05-15T07:11:08.245Z,9.03
2023-05-15T07:13:38.505Z,4.93
2023-05-15T07:16:06.931Z,8.00
2023-05-15T07:18:37.458Z,7.68
2023-05-15T07:21:05.963Z,5.00
2023-05-15T07:23:33.868Z,6.50
2023-05-15T07:26:02.083Z,6.95
2023-05-15T07:28:30.092Z,4.38
2023-05-15T07:30:58.241Z,8.38
2023-05-15T07:33:26.812Z,6.90
2023-05-15T07:35:55.429Z,9.30
2023-05-15T07:38:23.363Z,7.13
2023-05-15T07:40:51.880Z,8.05
2023-05-15T07:43:20.859Z,8.40
2023-05-15T07:45:52.205Z,6.88
2023-05-15T07:48:20.817Z,5.82
2023-05-15T07:50:51.106Z,3.45
2023-05-15T07:53:19.850Z,4.70
2023-05-15T07:55:48.199Z,10.50
2023-05-15T07:58:17.743Z,6.07
2023-05-15T08:00:46.007Z,5.18
2023-05-15T08:03:14.044Z,6.13
2023-05-15T08:05:42.170Z,5.38
2023-05-15T08:08:12.531Z,5.15
2023-05-15T08:10:40.690Z,8.27
2023-05-15T08:13:08.460Z,3.88
2023-05-15T08:15:36.513Z,4.43
2023-05-15T08:18:11.694Z,5.03
2023-05-15T08:20:39.972Z,6.13
2023-05-15T08:23:08.754Z,4.15
2023-05-15T08:25:37.028Z,5.63
2023-05-15T08:28:05.880Z,4.85
2023-05-15T08:30:34.004Z,4.43
2023-05-15T08:33:02.109Z,3.60
2023-05-15T08:35:30.465Z,5.47
2023-05-15T08:40:39.026Z,6.25
2023-05-15T08:43:15.668Z,3.70
2023-05-15T08:45:44.177Z,4.93
2023-05-15T08:48:16.318Z,6.10
2023-05-15T08:50:45.941Z,3.88
2023-05-15T08:53:14.315Z,5.05
2023-05-15T08:55:42.818Z,5.22
2023-05-15T08:58:10.843Z,5.80
2023-05-15T09:00:39.045Z,5.90
2023-05-15T09:03:07.271Z,4.25
2023-05-15T09:05:36.740Z,4.70
2023-05-15T09:08:08.351Z,3.00
2023-05-15T09:10:36.700Z,4.00
2023-05-15T09:13:07.922Z,4.40
2023-05-15T09:15:37.315Z,4.32
2023-05-15T09:18:06.513Z,4.97
2023-05-15T09:20:38.447Z,4.57
2023-05-15T09:23:23.049Z,4.40
2023-05-15T09:25:53.841Z,3.65
2023-05-15T09:28:30.352Z,7.05
2023-05-15T09:31:05.899Z,3.60
2023-05-15T09:33:35.678Z,4.57
2023-05-15T09:36:05.630Z,5.05
2023-05-15T09:38:35.036Z,4.50
2023-05-15T09:41:06.430Z,6.07
2023-05-15T09:43:36.966Z,3.95
2023-05-15T09:46:06.570Z,6.13
2023-05-15T09:48:35.427Z,3.80
2023-05-15T09:51:05.863Z,6.13
2023-05-15T09:53:34.010Z,3.63
2023-05-15T09:56:03.235Z,3.35
2023-05-15T09:58:31.909Z,5.15
2023-05-15T10:01:03.158Z,5.82
2023-05-15T10:03:31.141Z,4.72
2023-05-15T10:06:03.583Z,4.68
2023-05-15T10:08:34.607Z,6.40
2023-05-15T10:13:34.279Z,4.20
2023-05-15T10:16:03.967Z,4.22
2023-05-15T10:18:36.160Z,4.45
2023-05-15T10:21:05.081Z,6.18
2023-05-15T10:23:36.233Z,5.63
2023-05-15T10:26:26.836Z,3.90
2023-05-15T10:28:56.616Z,4.97
2023-05-15T10:31:25.688Z,3.38
2023-05-15T10:33:56.005Z,4.07
2023-05-15T10:36:25.812Z,6.18
2023-05-15T10:38:53.875Z,4.18
2023-05-15T10:41:23.209Z,4.88
2023-05-15T10:43:53.817Z,3.95
2023-05-15T10:46:22.565Z,8.45
2023-05-15T10:48:51.798Z,7.65
2023-05-15T10:51:26.765Z,4.47
2023-05-15T10:53:56.141Z,4.38
2023-05-15T10:56:30.909Z,4.53
2023-05-15T10:59:04.763Z,5.20
2023-05-15T11:01:35.354Z,5.85
2023-05-15T11:04:17.221Z,4.32
2023-05-15T11:06:50.273Z,7.20
2023-05-15T11:09:28.111Z,4.22
2023-05-15T11:12:03.982Z,4.30
2023-05-15T11:14:44.857Z,5.07
2023-05-15T11:17:16.558Z,4.78
2023-05-15T11:19:50.977Z,4.60
2023-05-15T11:22:28.612Z,4.45
2023-05-15T11:25:12.628Z,3.92
2023-05-15T11:27:43.612Z,4.68
2023-05-15T11:30:22.597Z,3.88
2023-05-15T11:33:03.798Z,4.60
2023-05-15T11:35:39.279Z,4.65
2023-05-15T11:38:10.788Z,4.40
2023-05-15T11:43:32.879Z,3.60
2023-05-15T11:46:04.070Z,3.70
2023-05-15T11:48:34.956Z,3.55
2023-05-15T11:51:03.522Z,4.97
2023-05-15T11:53:33.878Z,5.40
2023-05-15T11:56:02.172Z,4.28
2023-05-15T11:58:30.614Z,3.35
2023-05-15T12:00:58.798Z,5.88
2023-05-15T12:03:33.445Z,4.47
2023-05-15T12:06:03.101Z,5.07
2023-05-15T12:08:35.606Z,3.55
2023-05-15T12:11:04.596Z,4.20
2023-05-15T12:13:33.818Z,2.53
2023-05-15T12:16:03.753Z,3.58
2023-05-15T12:18:33.395Z,3.83
2023-05-15T12:21:01.703Z,3.85
2023-05-15T12:23:30.217Z,4.35
2023-05-15T12:26:01.676Z,4.78
2023-05-15T12:28:31.965Z,4.68
2023-05-15T12:31:00.402Z,7.90
2023-05-15T12:33:29.328Z,4.70
2023-05-15T12:36:01.775Z,6.25
2023-05-15T12:38:34.271Z,6.97
2023-05-15T12:41:02.438Z,5.90
2023-05-15T12:43:32.286Z,4.38
2023-05-15T12:46:05.562Z,5.18
2023-05-15T12:48:34.173Z,4.50
2023-05-15T12:51:09.218Z,5.07
2023-05-15T12:53:40.180Z,3.22
2023-05-15T12:56:16.687Z,4.88
2023-05-15T12:58:48.926Z,4.07
2023-05-15T13:01:17.756Z,6.45
2023-05-15T13:03:47.821Z,3.88
2023-05-15T13:06:17.344Z,6.40
2023-05-15T13:08:47.786Z,5.05
2023-05-15T13:11:18.494Z,5.78
2023-05-15T13:13:50.880Z,4.10
2023-05-15T13:16:30.058Z,3.42
2023-05-15T13:19:02.598Z,3.47
2023-05-15T13:21:31.617Z,4.32
2023-05-15T13:24:01.354Z,3.10
2023-05-15T13:26:29.553Z,3.42
2023-05-15T13:28:57.810Z,5.53
2023-05-15T13:31:26.824Z,4.95
2023-05-15T13:33:55.943Z,4.18
2023-05-15T13:36:24.037Z,2.67
2023-05-15T13:38:57.067Z,4.75
2023-05-15T13:41:27.328Z,4.25
2023-05-15T13:43:55.735Z,2.55
2023-05-15T13:46:23.698Z,3.53
2023-05-15T13:48:52.079Z,3.65
2023-05-15T13:51:20.040Z,2.28
2023-05-15T13:53:48.671Z,4.43
2023-05-15T13:56:16.905Z,3.53
2023-05-15T13:58:45.772Z,3.13
2023-05-15T14:01:14.560Z,3.90
2023-05-15T14:03:43.099Z,6.15
2023-05-15T14:06:11.366Z,4.25
2023-05-15T14:08:39.680Z,6.20
2023-05-15T14:11:08.022Z,5.45
2023-05-15T14:13:36.436Z,4.53
2023-05-15T14:16:04.912Z,4.25
2023-05-15T14:18:33.287Z,5.55
2023-05-15T14:21:01.407Z,3.72
2023-05-15T14:23:29.814Z,4.70
2023-05-15T14:25:57.783Z,5.47
2023-05-15T14:28:26.153Z,5.10
2023-05-15T14:30:54.311Z,5.40
2023-05-15T14:33:22.805Z,4.35
2023-05-15T14:35:50.744Z,4.38
2023-05-15T14:38:19.037Z,5.13
2023-05-15T14:40:47.010Z,7.20
2023-05-15T14:43:15.631Z,4.55
2023-05-15T14:45:45.741Z,4.87
2023-05-15T14:48:14.091Z,2.78
2023-05-15T14:50:42.217Z,6.07
2023-05-15T14:53:10.888Z,6.28
2023-05-15T14:55:39.252Z,5.13
2023-05-15T14:58:11.355Z,4.90
2023-05-15T15:00:39.401Z,3.97
2023-05-15T15:03:08.366Z,3.90
2023-05-15T15:05:36.428Z,3.33
2023-05-15T15:08:09.165Z,2.88
2023-05-15T15:10:38.809Z,3.70
2023-05-15T15:13:10.212Z,4.63
2023-05-15T15:15:41.204Z,4.25
2023-05-15T15:18:09.690Z,4.20
2023-05-15T15:20:37.845Z,4.95
2023-05-15T15:23:06.282Z,5.28
2023-05-15T15:25:34.698Z,5.60
2023-05-15T15:28:05.683Z,4.78
2023-05-15T15:30:33.552Z,4.75
2023-05-15T15:33:07.212Z,4.18
2023-05-15T15:35:35.207Z,4.40
2023-05-15T15:38:03.816Z,6.82
2023-05-15T15:40:32.457Z,6.50
2023-05-15T15:43:01.689Z,4.50
2023-05-15T15:45:29.711Z,4.90
2023-05-15T15:47:58.418Z,6.47
2023-05-15T15:50:26.683Z,5.35
2023-05-15T15:52:55.268Z,3.75
2023-05-15T15:55:23.303Z,5.47
2023-05-15T15:57:51.595Z,5.38
2023-05-15T16:00:19.604Z,4.18
2023-05-15T16:02:48.084Z,6.60
2023-05-15T16:05:16.096Z,4.10
2023-05-15T16:07:44.473Z,5.55
2023-05-15T16:10:13.491Z,5.63
2023-05-15T16:12:43.197Z,5.20
2023-05-15T16:15:22.297Z,5.05
2023-05-15T16:17:53.731Z,5.22
2023-05-15T16:20:23.943Z,5.67
2023-05-15T16:22:52.743Z,4.53
2023-05-15T16:25:21.119Z,5.63
2023-05-15T16:27:49.980Z,5.40
2023-05-15T16:30:33.420Z,5.32
2023-05-15T16:33:13.949Z,6.60
2023-05-15T16:35:44.957Z,4.78
2023-05-15T16:40:43.815Z,8.15
2023-05-15T16:43:13.766Z,8.70
2023-05-15T16:45:44.337Z,4.53
2023-05-15T16:48:14.922Z,6.03
2023-05-15T16:50:43.047Z,5.55
2023-05-15T16:53:11.420Z,5.93
2023-05-15T16:55:39.450Z,8.35
2023-05-15T16:58:08.723Z,5.50
2023-05-15T17:00:36.912Z,5.50
2023-05-15T17:03:06.171Z,6.28
2023-05-15T17:05:42.163Z,6.75
2023-05-15T17:08:11.584Z,5.43
2023-05-15T17:10:40.680Z,6.35
2023-05-15T17:13:12.152Z,5.43
2023-05-15T17:15:40.482Z,5.55
2023-05-15T17:18:09.847Z,7.68
2023-05-15T17:20:38.057Z,5.88
2023-05-15T17:23:06.861Z,6.32
2023-05-15T17:25:34.830Z,8.13
2023-05-15T17:28:03.100Z,7.60
2023-05-15T17:30:31.184Z,7.45
2023-05-15T17:33:00.600Z,4.85
2023-05-15T17:35:30.569Z,7.15
2023-05-15T17:38:00.677Z,6.85
2023-05-15T17:40:28.578Z,6.72
2023-05-15T17:42:56.663Z,5.40
2023-05-15T17:45:24.788Z,7.05
2023-05-15T17:48:43.449Z,6.50
2023-05-15T17:51:11.726Z,9.40
2023-05-15T17:53:39.719Z,6.53
2023-05-15T17:56:08.249Z,6.57
2023-05-15T17:58:36.328Z,7.72
2023-05-15T18:01:04.620Z,6.28
2023-05-15T18:03:33.990Z,5.93
2023-05-15T18:06:02.171Z,5.97
2023-05-15T18:08:29.966Z,5.13
2023-05-15T18:10:58.188Z,6.45
2023-05-15T18:13:26.182Z,5.75
2023-05-15T18:15:54.507Z,5.80
2023-05-15T18:18:22.894Z,8.00
2023-05-15T18:20:51.865Z,7.00
2023-05-15T18:23:20.006Z,5.18
2023-05-15T18:25:48.446Z,5.93
2023-05-15T18:28:16.389Z,5.38
2023-05-15T18:30:47.660Z,5.70
2023-05-15T18:33:18.158Z,5.55
2023-05-15T18:35:46.274Z,5.97
2023-05-15T18:42:25.370Z,5.28
2023-05-15T18:44:53.357Z,5.78
2023-05-15T18:47:21.507Z,7.78
2023-05-15T18:49:49.336Z,5.55
2023-05-15T18:52:20.068Z,5.88
2023-05-15T18:54:48.242Z,6.30
2023-05-15T18:57:16.334Z,9.90
2023-05-15T18:59:47.846Z,5.20
2023-05-15T19:02:16.002Z,5.63
2023-05-15T19:04:44.022Z,6.32
2023-05-15T19:07:12.290Z,8.65
2023-05-15T19:09:40.196Z,7.10
2023-05-15T19:12:08.343Z,8.25
2023-05-15T19:14:36.092Z,14.85
2023-05-15T19:17:04.290Z,8.27
2023-05-15T19:19:32.148Z,20.60
2023-05-15T19:22:00.241Z,5.68
2023-05-15T19:24:27.991Z,7.40
2023-05-15T19:26:56.180Z,10.65
2023-05-15T19:29:24.015Z,6.32
2023-05-15T19:31:52.675Z,9.27
2023-05-15T19:34:20.596Z,12.90
2023-05-15T19:36:50.739Z,6.97
2023-05-15T19:39:18.546Z,8.93
2023-05-15T19:41:46.794Z,7.78
2023-05-15T19:44:14.919Z,10.38
2023-05-15T19:49:11.769Z,14.32
2023-05-15T19:51:41.315Z,12.35
2023-05-15T19:54:09.948Z,9.55
2023-05-15T19:56:38.024Z,10.13
2023-05-15T19:59:05.773Z,13.70
2023-05-15T20:01:33.837Z,13.32
2023-05-15T20:04:01.632Z,11.25
2023-05-15T20:06:29.820Z,6.45
2023-05-15T20:08:57.614Z,11.93
2023-05-15T20:11:25.881Z,9.20
2023-05-15T20:13:53.762Z,8.85
2023-05-15T20:16:22.083Z,5.70
2023-05-15T20:18:50.524Z,10.60
2023-05-15T20:21:18.640Z,9.93
2023-05-15T20:23:46.423Z,5.03
2023-05-15T20:26:14.834Z,7.03
2023-05-15T20:28:45.414Z,7.82
2023-05-15T20:31:13.745Z,6.22
2023-05-15T20:33:41.616Z,24.23
2023-05-15T20:36:12.584Z,27.23
2023-05-15T20:38:40.613Z,18.77
2023-05-15T20:41:10.823Z,12.40
2023-05-15T20:43:39.096Z,7.38
2023-05-15T20:46:11.098Z,7.38
2023-05-15T20:48:39.257Z,7.45
2023-05-15T20:51:07.443Z,7.32
2023-05-15T20:53:35.221Z,8.75
2023-05-15T20:56:03.384Z,5.93
2023-05-15T20:58:33.649Z,6.28
2023-05-15T21:01:01.779Z,8.23
2023-05-15T21:03:30.007Z,6.32
2023-05-15T21:05:58.544Z,4.53
2023-05-15T21:08:29.200Z,6.90
2023-05-15T21:10:57.392Z,5.77
2023-05-15T21:13:25.182Z,6.47
2023-05-15T21:15:53.380Z,8.52
2023-05-15T21:18:21.146Z,6.05
2023-05-15T21:20:49.164Z,9.07
2023-05-15T21:23:17.165Z,7.03
2023-05-15T21:25:45.308Z,8.10
2023-05-15T21:28:13.028Z,4.57
2023-05-15T21:30:41.096Z,9.23
2023-05-15T21:33:08.992Z,5.95
2023-05-15T21:35:38.071Z,5.55
2023-05-15T21:38:06.113Z,7.57
2023-05-15T21:40:34.555Z,7.47
2023-05-15T21:43:02.535Z,11.25
2023-05-15T21:45:30.761Z,7.30
2023-05-15T21:48:01.314Z,9.13
2023-05-15T21:50:29.506Z,8.30
2023-05-15T21:53:04.526Z,11.60
2023-05-15T21:55:32.544Z,12.75
2023-05-15T21:58:00.628Z,10.52
2023-05-15T22:00:29.029Z,13.05
2023-05-15T22:02:56.827Z,18.02
2023-05-15T22:05:27.247Z,15.23
2023-05-15T22:07:55.027Z,22.08
2023-05-15T22:10:23.066Z,17.50
2023-05-15T22:12:51.732Z,14.13
2023-05-15T22:15:19.758Z,10.20
2023-05-15T22:17:48.039Z,11.00
2023-05-15T22:20:18.996Z,9.65
2023-05-15T22:22:46.873Z,12.77
2023-05-15T22:25:14.980Z,9.55
2023-05-15T22:27:42.763Z,10.25
2023-05-15T22:30:11.188Z,9.95
2023-05-15T22:32:39.352Z,10.75
2023-05-15T22:35:08.656Z,8.70
2023-05-15T22:37:36.726Z,7.88
2023-05-15T22:40:07.546Z,6.72
2023-05-15T22:42:35.340Z,9.18
2023-05-15T22:45:06.554Z,7.85
2023-05-15T22:47:34.556Z,8.38
2023-05-15T22:50:02.925Z,8.35
2023-05-15T22:52:30.936Z,11.73
2023-05-15T22:54:59.369Z,8.55
2023-05-15T22:57:27.181Z,7.88
2023-05-15T22:59:57.864Z,9.93
2023-05-15T23:02:25.869Z,11.77
2023-05-15T23:04:53.885Z,7.50
2023-05-15T23:07:21.811Z,10.05
2023-05-15T23:09:50.037Z,7.30
2023-05-15T23:12:17.732Z,10.25
2023-05-15T23:14:45.758Z,7.10
2023-05-15T23:17:13.556Z,7.75
2023-05-15T23:19:42.016Z,8.30
2023-05-15T23:22:11.478Z,8.65
2023-05-15T23:24:39.542Z,7.60
2023-05-15T23:27:07.897Z,8.48
2023-05-15T23:29:36.677Z,10.85
2023-05-15T23:32:04.809Z,8.13
2023-05-15T23:34:32.806Z,7.38
2023-05-15T23:37:00.676Z,8.38
2023-05-15T23:39:28.841Z,7.97
2023-05-15T23:41:57.292Z,8.27
2023-05-15T23:44:25.611Z,10.30
2023-05-15T23:46:53.536Z,9.55
2023-05-15T23:49:21.542Z,8.35
2023-05-15T23:51:49.482Z,7.93
2023-05-15T23:54:17.663Z,8.20
2023-05-15T23:56:45.487Z,10.25
2023-05-15T23:59:13.898Z,7.10
